sensor_id;sensor_type;location;lat;lon;timestamp;P1;durP1;ratioP1;P2;durP2;ratioP2
19004;SDS011;9635;52.078;8.648;2022-09-03T00:00:45;2.50;;;0.63;;
19004;SDS011;9635;52.078;8.648;2022-09-03T00:06:00;2.58;;;0.70;;
19004;SDS011;9635;52.078;8.648;2022-09-03T00:11:10;0.65;;;0.50;;
19004;SDS011;9635;52.078;8.648;2022-09-03T00:16:19;5.13;;;0.90;;
19004;SDS011;9635;52.078;8.648;2022-09-03T00:21:30;3.60;;;0.60;;
19004;SDS011;9635;52.078;8.648;2022-09-03T00:26:39;1.92;;;0.60;;
19004;SDS011;9635;52.078;8.648;2022-09-03T00:31:46;4.20;;;1.25;;
19004;SDS011;9635;52.078;8.648;2022-09-03T00:36:54;2.35;;;0.60;;
19004;SDS011;9635;52.078;8.648;2022-09-03T00:42:00;2.67;;;1.10;;
19004;SDS011;9635;52.078;8.648;2022-09-03T00:47:12;1.80;;;0.57;;
19004;SDS011;9635;52.078;8.648;2022-09-03T00:52:29;2.40;;;0.60;;
19004;SDS011;9635;52.078;8.648;2022-09-03T00:57:47;2.30;;;0.80;;
19004;SDS011;9635;52.078;8.648;2022-09-03T01:03:00;2.63;;;0.70;;
19004;SDS011;9635;52.078;8.648;2022-09-03T01:08:13;3.47;;;0.70;;
19004;SDS011;9635;52.078;8.648;2022-09-03T01:13:27;1.02;;;0.60;;
19004;SDS011;9635;52.078;8.648;2022-09-03T01:18:37;4.57;;;0.60;;
19004;SDS011;9635;52.078;8.648;2022-09-03T01:24:11;2.80;;;0.60;;
19004;SDS011;9635;52.078;8.648;2022-09-03T01:29:33;2.78;;;0.70;;
19004;SDS011;9635;52.078;8.648;2022-09-03T01:34:43;2.05;;;0.88;;
19004;SDS011;9635;52.078;8.648;2022-09-03T01:39:58;1.67;;;0.47;;
19004;SDS011;9635;52.078;8.648;2022-09-03T01:45:16;1.02;;;0.50;;
19004;SDS011;9635;52.078;8.648;2022-09-03T01:50:34;1.55;;;0.40;;
19004;SDS011;9635;52.078;8.648;2022-09-03T01:55:50;2.10;;;0.70;;
19004;SDS011;9635;52.078;8.648;2022-09-03T02:01:11;0.63;;;0.60;;
19004;SDS011;9635;52.078;8.648;2022-09-03T02:06:19;1.48;;;0.63;;
19004;SDS011;9635;52.078;8.648;2022-09-03T02:11:22;4.82;;;0.80;;
19004;SDS011;9635;52.078;8.648;2022-09-03T02:16:29;3.28;;;0.80;;
19004;SDS011;9635;52.078;8.648;2022-09-03T02:21:34;3.40;;;0.70;;
19004;SDS011;9635;52.078;8.648;2022-09-03T02:26:40;1.85;;;0.63;;
19004;SDS011;9635;52.078;8.648;2022-09-03T02:31:44;0.75;;;0.60;;
19004;SDS011;9635;52.078;8.648;2022-09-03T02:36:47;1.23;;;0.60;;
19004;SDS011;9635;52.078;8.648;2022-09-03T02:41:52;3.10;;;0.77;;
19004;SDS011;9635;52.078;8.648;2022-09-03T02:46:59;1.60;;;0.70;;
19004;SDS011;9635;52.078;8.648;2022-09-03T02:52:04;1.23;;;0.80;;
19004;SDS011;9635;52.078;8.648;2022-09-03T02:57:10;2.22;;;0.90;;
19004;SDS011;9635;52.078;8.648;2022-09-03T03:02:16;2.03;;;0.70;;
19004;SDS011;9635;52.078;8.648;2022-09-03T03:07:19;1.25;;;0.85;;
19004;SDS011;9635;52.078;8.648;2022-09-03T03:12:22;1.10;;;0.68;;
19004;SDS011;9635;52.078;8.648;2022-09-03T03:17:28;1.17;;;0.70;;
19004;SDS011;9635;52.078;8.648;2022-09-03T03:22:32;2.33;;;1.02;;
19004;SDS011;9635;52.078;8.648;2022-09-03T03:27:34;2.80;;;0.85;;
19004;SDS011;9635;52.078;8.648;2022-09-03T03:32:42;2.10;;;0.90;;
19004;SDS011;9635;52.078;8.648;2022-09-03T03:37:45;2.30;;;0.68;;
19004;SDS011;9635;52.078;8.648;2022-09-03T03:42:48;0.80;;;0.80;;
19004;SDS011;9635;52.078;8.648;2022-09-03T03:47:55;1.88;;;0.80;;
19004;SDS011;9635;52.078;8.648;2022-09-03T03:52:58;1.50;;;0.60;;
19004;SDS011;9635;52.078;8.648;2022-09-03T03:58:02;2.58;;;1.13;;
19004;SDS011;9635;52.078;8.648;2022-09-03T04:03:06;2.13;;;1.42;;
19004;SDS011;9635;52.078;8.648;2022-09-03T04:08:09;4.97;;;1.20;;
19004;SDS011;9635;52.078;8.648;2022-09-03T04:13:12;1.67;;;0.90;;
19004;SDS011;9635;52.078;8.648;2022-09-03T04:18:17;1.80;;;0.93;;
19004;SDS011;9635;52.078;8.648;2022-09-03T04:23:19;1.92;;;0.90;;
19004;SDS011;9635;52.078;8.648;2022-09-03T04:28:23;0.88;;;0.85;;
19004;SDS011;9635;52.078;8.648;2022-09-03T04:33:27;2.75;;;0.90;;
19004;SDS011;9635;52.078;8.648;2022-09-03T04:38:31;2.08;;;0.80;;
19004;SDS011;9635;52.078;8.648;2022-09-03T04:43:34;1.02;;;0.93;;
19004;SDS011;9635;52.078;8.648;2022-09-03T04:48:39;1.48;;;1.25;;
19004;SDS011;9635;52.078;8.648;2022-09-03T04:53:42;1.63;;;0.90;;
19004;SDS011;9635;52.078;8.648;2022-09-03T04:58:47;3.42;;;0.90;;
19004;SDS011;9635;52.078;8.648;2022-09-03T05:03:52;1.33;;;1.20;;
19004;SDS011;9635;52.078;8.648;2022-09-03T05:08:58;1.50;;;0.80;;
19004;SDS011;9635;52.078;8.648;2022-09-03T05:14:01;2.03;;;1.10;;
19004;SDS011;9635;52.078;8.648;2022-09-03T05:19:07;3.88;;;0.80;;
19004;SDS011;9635;52.078;8.648;2022-09-03T05:24:11;1.67;;;1.02;;
19004;SDS011;9635;52.078;8.648;2022-09-03T05:29:15;3.67;;;1.30;;
19004;SDS011;9635;52.078;8.648;2022-09-03T05:34:21;2.17;;;1.70;;
19004;SDS011;9635;52.078;8.648;2022-09-03T05:39:24;1.13;;;0.75;;
19004;SDS011;9635;52.078;8.648;2022-09-03T05:44:27;2.35;;;0.85;;
19004;SDS011;9635;52.078;8.648;2022-09-03T05:49:31;4.57;;;1.20;;
19004;SDS011;9635;52.078;8.648;2022-09-03T05:54:34;3.80;;;1.15;;
19004;SDS011;9635;52.078;8.648;2022-09-03T05:59:37;1.02;;;0.98;;
19004;SDS011;9635;52.078;8.648;2022-09-03T06:04:41;1.20;;;1.00;;
19004;SDS011;9635;52.078;8.648;2022-09-03T06:09:44;1.30;;;0.80;;
19004;SDS011;9635;52.078;8.648;2022-09-03T06:14:47;1.52;;;0.88;;
19004;SDS011;9635;52.078;8.648;2022-09-03T06:19:51;2.80;;;1.02;;
19004;SDS011;9635;52.078;8.648;2022-09-03T06:24:54;5.20;;;0.93;;
19004;SDS011;9635;52.078;8.648;2022-09-03T06:29:57;2.85;;;1.42;;
19004;SDS011;9635;52.078;8.648;2022-09-03T06:35:01;3.10;;;1.13;;
19004;SDS011;9635;52.078;8.648;2022-09-03T06:40:04;3.42;;;1.02;;
19004;SDS011;9635;52.078;8.648;2022-09-03T06:45:13;2.30;;;1.00;;
19004;SDS011;9635;52.078;8.648;2022-09-03T06:50:18;2.88;;;1.17;;
19004;SDS011;9635;52.078;8.648;2022-09-03T06:55:21;1.27;;;0.90;;
19004;SDS011;9635;52.078;8.648;2022-09-03T07:00:24;1.08;;;0.95;;
19004;SDS011;9635;52.078;8.648;2022-09-03T07:05:32;1.85;;;1.08;;
19004;SDS011;9635;52.078;8.648;2022-09-03T07:10:35;2.00;;;1.48;;
19004;SDS011;9635;52.078;8.648;2022-09-03T07:15:38;2.35;;;1.10;;
19004;SDS011;9635;52.078;8.648;2022-09-03T07:20:43;3.22;;;1.20;;
19004;SDS011;9635;52.078;8.648;2022-09-03T07:25:51;2.13;;;1.15;;
19004;SDS011;9635;52.078;8.648;2022-09-03T07:30:59;5.38;;;1.05;;
19004;SDS011;9635;52.078;8.648;2022-09-03T07:36:05;2.88;;;1.00;;
19004;SDS011;9635;52.078;8.648;2022-09-03T07:41:10;4.82;;;1.05;;
19004;SDS011;9635;52.078;8.648;2022-09-03T07:46:27;2.42;;;1.10;;
19004;SDS011;9635;52.078;8.648;2022-09-03T07:51:32;1.17;;;0.95;;
19004;SDS011;9635;52.078;8.648;2022-09-03T07:56:38;5.55;;;1.35;;
19004;SDS011;9635;52.078;8.648;2022-09-03T08:01:41;2.88;;;1.20;;
19004;SDS011;9635;52.078;8.648;2022-09-03T08:06:45;2.35;;;0.90;;
19004;SDS011;9635;52.078;8.648;2022-09-03T08:11:48;1.33;;;1.00;;
19004;SDS011;9635;52.078;8.648;2022-09-03T08:16:51;2.72;;;0.90;;
19004;SDS011;9635;52.078;8.648;2022-09-03T08:21:55;1.60;;;0.90;;
19004;SDS011;9635;52.078;8.648;2022-09-03T08:26:58;5.03;;;1.33;;
19004;SDS011;9635;52.078;8.648;2022-09-03T08:32:02;6.38;;;1.10;;
19004;SDS011;9635;52.078;8.648;2022-09-03T08:37:07;3.88;;;1.23;;
19004;SDS011;9635;52.078;8.648;2022-09-03T08:47:47;1.75;;;1.05;;
19004;SDS011;9635;52.078;8.648;2022-09-03T08:52:59;1.85;;;1.00;;
19004;SDS011;9635;52.078;8.648;2022-09-03T08:58:07;2.50;;;1.00;;
19004;SDS011;9635;52.078;8.648;2022-09-03T09:03:21;0.90;;;0.80;;
19004;SDS011;9635;52.078;8.648;2022-09-03T09:08:51;1.80;;;1.27;;
19004;SDS011;9635;52.078;8.648;2022-09-03T09:14:06;1.23;;;0.88;;
19004;SDS011;9635;52.078;8.648;2022-09-03T09:19:21;1.38;;;1.02;;
19004;SDS011;9635;52.078;8.648;2022-09-03T09:24:38;2.15;;;1.02;;
19004;SDS011;9635;52.078;8.648;2022-09-03T09:29:47;2.03;;;1.10;;
19004;SDS011;9635;52.078;8.648;2022-09-03T09:34:52;4.30;;;1.05;;
19004;SDS011;9635;52.078;8.648;2022-09-03T09:39:57;3.80;;;1.85;;
19004;SDS011;9635;52.078;8.648;2022-09-03T09:45:07;2.97;;;0.80;;
19004;SDS011;9635;52.078;8.648;2022-09-03T09:50:15;1.42;;;1.08;;
19004;SDS011;9635;52.078;8.648;2022-09-03T09:55:29;1.50;;;1.02;;
19004;SDS011;9635;52.078;8.648;2022-09-03T10:00:33;1.70;;;0.98;;
19004;SDS011;9635;52.078;8.648;2022-09-03T10:05:38;1.92;;;0.90;;
19004;SDS011;9635;52.078;8.648;2022-09-03T10:10:43;1.65;;;1.00;;
19004;SDS011;9635;52.078;8.648;2022-09-03T10:15:50;3.38;;;1.13;;
19004;SDS011;9635;52.078;8.648;2022-09-03T10:21:01;1.95;;;1.05;;
19004;SDS011;9635;52.078;8.648;2022-09-03T10:26:09;3.38;;;1.23;;
19004;SDS011;9635;52.078;8.648;2022-09-03T10:31:22;1.75;;;1.50;;
19004;SDS011;9635;52.078;8.648;2022-09-03T10:36:35;1.65;;;1.20;;
19004;SDS011;9635;52.078;8.648;2022-09-03T10:41:48;0.93;;;0.93;;
19004;SDS011;9635;52.078;8.648;2022-09-03T10:47:06;3.55;;;1.15;;
19004;SDS011;9635;52.078;8.648;2022-09-03T10:52:24;3.40;;;1.30;;
19004;SDS011;9635;52.078;8.648;2022-09-03T10:57:34;1.15;;;1.00;;
19004;SDS011;9635;52.078;8.648;2022-09-03T11:02:50;4.60;;;1.00;;
19004;SDS011;9635;52.078;8.648;2022-09-03T11:08:15;5.97;;;1.10;;
19004;SDS011;9635;52.078;8.648;2022-09-03T11:13:25;0.80;;;0.80;;
19004;SDS011;9635;52.078;8.648;2022-09-03T11:18:32;5.63;;;0.80;;
19004;SDS011;9635;52.078;8.648;2022-09-03T11:23:41;2.03;;;0.93;;
19004;SDS011;9635;52.078;8.648;2022-09-03T11:28:50;3.28;;;1.00;;
19004;SDS011;9635;52.078;8.648;2022-09-03T11:33:58;2.15;;;1.10;;
19004;SDS011;9635;52.078;8.648;2022-09-03T11:39:12;0.80;;;0.80;;
19004;SDS011;9635;52.078;8.648;2022-09-03T11:44:20;3.85;;;1.05;;
19004;SDS011;9635;52.078;8.648;2022-09-03T11:49:26;1.10;;;0.85;;
19004;SDS011;9635;52.078;8.648;2022-09-03T11:54:31;11.40;;;1.30;;
19004;SDS011;9635;52.078;8.648;2022-09-03T11:59:45;3.03;;;1.02;;
19004;SDS011;9635;52.078;8.648;2022-09-03T12:04:49;1.20;;;0.80;;
19004;SDS011;9635;52.078;8.648;2022-09-03T12:21:09;3.08;;;0.80;;
19004;SDS011;9635;52.078;8.648;2022-09-03T12:26:13;1.20;;;1.10;;
19004;SDS011;9635;52.078;8.648;2022-09-03T12:31:19;2.78;;;1.52;;
19004;SDS011;9635;52.078;8.648;2022-09-03T12:36:25;1.77;;;1.10;;
19004;SDS011;9635;52.078;8.648;2022-09-03T12:41:37;0.85;;;0.85;;
19004;SDS011;9635;52.078;8.648;2022-09-03T12:46:41;1.45;;;0.70;;
19004;SDS011;9635;52.078;8.648;2022-09-03T12:51:45;0.82;;;0.80;;
19004;SDS011;9635;52.078;8.648;2022-09-03T12:56:54;2.33;;;0.93;;
19004;SDS011;9635;52.078;8.648;2022-09-03T13:02:01;2.05;;;1.13;;
19004;SDS011;9635;52.078;8.648;2022-09-03T13:07:10;1.35;;;1.10;;
19004;SDS011;9635;52.078;8.648;2022-09-03T13:12:20;2.63;;;0.90;;
19004;SDS011;9635;52.078;8.648;2022-09-03T13:17:31;4.30;;;1.17;;
19004;SDS011;9635;52.078;8.648;2022-09-03T13:22:55;1.95;;;1.40;;
19004;SDS011;9635;52.078;8.648;2022-09-03T13:28:13;4.20;;;1.40;;
19004;SDS011;9635;52.078;8.648;2022-09-03T13:33:31;1.80;;;1.10;;
19004;SDS011;9635;52.078;8.648;2022-09-03T13:38:37;1.17;;;0.82;;
19004;SDS011;9635;52.078;8.648;2022-09-03T13:43:46;3.83;;;0.80;;
19004;SDS011;9635;52.078;8.648;2022-09-03T13:48:57;2.88;;;0.95;;
19004;SDS011;9635;52.078;8.648;2022-09-03T13:54:23;2.88;;;1.80;;
19004;SDS011;9635;52.078;8.648;2022-09-03T13:59:50;3.72;;;1.23;;
19004;SDS011;9635;52.078;8.648;2022-09-03T14:05:02;1.90;;;0.90;;
19004;SDS011;9635;52.078;8.648;2022-09-03T14:10:14;5.10;;;1.30;;
19004;SDS011;9635;52.078;8.648;2022-09-03T14:15:25;3.75;;;1.05;;
19004;SDS011;9635;52.078;8.648;2022-09-03T14:20:35;5.53;;;1.00;;
19004;SDS011;9635;52.078;8.648;2022-09-03T14:25:50;0.75;;;0.70;;
19004;SDS011;9635;52.078;8.648;2022-09-03T14:30:56;7.38;;;1.10;;
19004;SDS011;9635;52.078;8.648;2022-09-03T14:36:11;2.55;;;1.20;;
19004;SDS011;9635;52.078;8.648;2022-09-03T14:41:27;2.05;;;0.90;;
19004;SDS011;9635;52.078;8.648;2022-09-03T14:46:48;1.17;;;1.00;;
19004;SDS011;9635;52.078;8.648;2022-09-03T14:52:09;2.45;;;0.90;;
19004;SDS011;9635;52.078;8.648;2022-09-03T14:57:30;2.75;;;1.30;;
19004;SDS011;9635;52.078;8.648;2022-09-03T15:08:26;3.90;;;1.52;;
19004;SDS011;9635;52.078;8.648;2022-09-03T15:13:41;3.05;;;1.10;;
19004;SDS011;9635;52.078;8.648;2022-09-03T15:18:55;0.80;;;0.80;;
19004;SDS011;9635;52.078;8.648;2022-09-03T15:24:12;3.28;;;0.98;;
19004;SDS011;9635;52.078;8.648;2022-09-03T15:29:30;1.17;;;0.90;;
19004;SDS011;9635;52.078;8.648;2022-09-03T15:34:48;1.70;;;0.88;;
19004;SDS011;9635;52.078;8.648;2022-09-03T15:40:05;1.48;;;0.98;;
19004;SDS011;9635;52.078;8.648;2022-09-03T15:45:14;1.63;;;1.05;;
19004;SDS011;9635;52.078;8.648;2022-09-03T15:50:27;2.58;;;1.10;;
19004;SDS011;9635;52.078;8.648;2022-09-03T15:55:36;2.85;;;1.10;;
19004;SDS011;9635;52.078;8.648;2022-09-03T16:00:49;2.10;;;1.15;;
19004;SDS011;9635;52.078;8.648;2022-09-03T16:05:56;2.30;;;1.15;;
19004;SDS011;9635;52.078;8.648;2022-09-03T16:11:06;3.85;;;1.15;;
19004;SDS011;9635;52.078;8.648;2022-09-03T16:16:15;1.33;;;1.23;;
19004;SDS011;9635;52.078;8.648;2022-09-03T16:21:25;2.47;;;1.27;;
19004;SDS011;9635;52.078;8.648;2022-09-03T16:26:36;1.85;;;1.00;;
19004;SDS011;9635;52.078;8.648;2022-09-03T16:31:50;2.85;;;1.17;;
19004;SDS011;9635;52.078;8.648;2022-09-03T16:37:07;3.53;;;0.90;;
19004;SDS011;9635;52.078;8.648;2022-09-03T16:42:23;1.92;;;1.20;;
19004;SDS011;9635;52.078;8.648;2022-09-03T16:47:35;1.88;;;0.80;;
19004;SDS011;9635;52.078;8.648;2022-09-03T16:52:52;1.50;;;1.08;;
19004;SDS011;9635;52.078;8.648;2022-09-03T16:58:09;1.20;;;0.93;;
19004;SDS011;9635;52.078;8.648;2022-09-03T17:03:23;6.93;;;1.17;;
19004;SDS011;9635;52.078;8.648;2022-09-03T17:08:47;2.35;;;1.15;;
19004;SDS011;9635;52.078;8.648;2022-09-03T17:14:06;1.75;;;1.00;;
19004;SDS011;9635;52.078;8.648;2022-09-03T17:19:26;4.50;;;1.23;;
19004;SDS011;9635;52.078;8.648;2022-09-03T17:24:35;4.40;;;0.95;;
19004;SDS011;9635;52.078;8.648;2022-09-03T17:29:51;2.05;;;1.20;;
19004;SDS011;9635;52.078;8.648;2022-09-03T17:35:06;1.65;;;1.17;;
19004;SDS011;9635;52.078;8.648;2022-09-03T17:40:19;2.17;;;1.02;;
19004;SDS011;9635;52.078;8.648;2022-09-03T17:45:35;2.97;;;2.30;;
19004;SDS011;9635;52.078;8.648;2022-09-03T17:50:44;2.22;;;1.83;;
19004;SDS011;9635;52.078;8.648;2022-09-03T17:55:54;4.00;;;2.65;;
19004;SDS011;9635;52.078;8.648;2022-09-03T18:01:10;3.53;;;1.25;;
19004;SDS011;9635;52.078;8.648;2022-09-03T18:06:25;1.52;;;1.15;;
19004;SDS011;9635;52.078;8.648;2022-09-03T18:11:35;2.50;;;1.38;;
19004;SDS011;9635;52.078;8.648;2022-09-03T18:16:44;1.20;;;1.10;;
19004;SDS011;9635;52.078;8.648;2022-09-03T18:21:50;3.35;;;1.33;;
19004;SDS011;9635;52.078;8.648;2022-09-03T18:27:12;2.15;;;1.20;;
19004;SDS011;9635;52.078;8.648;2022-09-03T18:32:38;1.15;;;0.98;;
19004;SDS011;9635;52.078;8.648;2022-09-03T18:37:59;5.00;;;1.43;;
19004;SDS011;9635;52.078;8.648;2022-09-03T18:43:22;5.18;;;1.40;;
19004;SDS011;9635;52.078;8.648;2022-09-03T18:48:55;3.10;;;1.40;;
19004;SDS011;9635;52.078;8.648;2022-09-03T18:54:24;2.25;;;1.23;;
19004;SDS011;9635;52.078;8.648;2022-09-03T19:00:08;3.13;;;1.48;;
19004;SDS011;9635;52.078;8.648;2022-09-03T19:05:34;2.95;;;1.40;;
19004;SDS011;9635;52.078;8.648;2022-09-03T19:11:05;6.03;;;1.20;;
19004;SDS011;9635;52.078;8.648;2022-09-03T19:16:38;2.90;;;1.53;;
19004;SDS011;9635;52.078;8.648;2022-09-03T19:22:13;5.43;;;1.83;;
19004;SDS011;9635;52.078;8.648;2022-09-03T19:27:43;2.10;;;1.70;;
19004;SDS011;9635;52.078;8.648;2022-09-03T19:33:23;2.80;;;1.67;;
19004;SDS011;9635;52.078;8.648;2022-09-03T19:38:53;2.85;;;1.67;;
19004;SDS011;9635;52.078;8.648;2022-09-03T19:44:30;4.07;;;1.35;;
19004;SDS011;9635;52.078;8.648;2022-09-03T19:50:05;2.53;;;1.60;;
19004;SDS011;9635;52.078;8.648;2022-09-03T19:55:35;6.93;;;1.58;;
19004;SDS011;9635;52.078;8.648;2022-09-03T20:01:05;2.90;;;2.10;;
19004;SDS011;9635;52.078;8.648;2022-09-03T20:06:27;4.93;;;2.13;;
19004;SDS011;9635;52.078;8.648;2022-09-03T20:11:49;3.75;;;1.58;;
19004;SDS011;9635;52.078;8.648;2022-09-03T20:16:56;3.40;;;1.90;;
19004;SDS011;9635;52.078;8.648;2022-09-03T20:22:11;1.85;;;1.48;;
19004;SDS011;9635;52.078;8.648;2022-09-03T20:27:28;3.42;;;1.73;;
19004;SDS011;9635;52.078;8.648;2022-09-03T20:32:44;4.03;;;1.40;;
19004;SDS011;9635;52.078;8.648;2022-09-03T20:37:58;2.55;;;1.63;;
19004;SDS011;9635;52.078;8.648;2022-09-03T20:43:19;2.15;;;1.70;;
19004;SDS011;9635;52.078;8.648;2022-09-03T20:48:37;3.97;;;1.70;;
19004;SDS011;9635;52.078;8.648;2022-09-03T20:53:57;2.13;;;1.58;;
19004;SDS011;9635;52.078;8.648;2022-09-03T20:59:12;4.93;;;1.90;;
19004;SDS011;9635;52.078;8.648;2022-09-03T21:04:26;5.32;;;1.50;;
19004;SDS011;9635;52.078;8.648;2022-09-03T21:09:44;2.30;;;1.42;;
19004;SDS011;9635;52.078;8.648;2022-09-03T21:15:00;2.72;;;1.65;;
19004;SDS011;9635;52.078;8.648;2022-09-03T21:20:12;3.42;;;1.52;;
19004;SDS011;9635;52.078;8.648;2022-09-03T21:25:24;4.22;;;1.40;;
19004;SDS011;9635;52.078;8.648;2022-09-03T21:30:32;4.70;;;1.20;;
19004;SDS011;9635;52.078;8.648;2022-09-03T21:35:43;2.53;;;1.38;;
19004;SDS011;9635;52.078;8.648;2022-09-03T21:40:48;4.18;;;1.30;;
19004;SDS011;9635;52.078;8.648;2022-09-03T21:45:58;1.48;;;1.33;;
19004;SDS011;9635;52.078;8.648;2022-09-03T21:51:08;4.35;;;1.67;;
19004;SDS011;9635;52.078;8.648;2022-09-03T21:56:28;2.03;;;1.33;;
19004;SDS011;9635;52.078;8.648;2022-09-03T22:01:49;2.60;;;1.40;;
19004;SDS011;9635;52.078;8.648;2022-09-03T22:07:03;1.80;;;1.20;;
19004;SDS011;9635;52.078;8.648;2022-09-03T22:12:15;4.32;;;1.33;;
19004;SDS011;9635;52.078;8.648;2022-09-03T22:17:24;2.53;;;1.55;;
19004;SDS011;9635;52.078;8.648;2022-09-03T22:22:38;1.98;;;1.50;;
19004;SDS011;9635;52.078;8.648;2022-09-03T22:27:46;4.03;;;1.63;;
19004;SDS011;9635;52.078;8.648;2022-09-03T22:33:03;1.35;;;1.20;;
19004;SDS011;9635;52.078;8.648;2022-09-03T22:38:26;2.55;;;1.42;;
19004;SDS011;9635;52.078;8.648;2022-09-03T22:43:38;4.70;;;1.67;;
19004;SDS011;9635;52.078;8.648;2022-09-03T22:48:53;2.38;;;2.03;;
19004;SDS011;9635;52.078;8.648;2022-09-03T22:54:12;1.88;;;1.42;;
19004;SDS011;9635;52.078;8.648;2022-09-03T22:59:28;2.70;;;1.45;;
19004;SDS011;9635;52.078;8.648;2022-09-03T23:04:39;2.65;;;1.33;;
19004;SDS011;9635;52.078;8.648;2022-09-03T23:09:49;1.90;;;1.60;;
19004;SDS011;9635;52.078;8.648;2022-09-03T23:14:57;3.47;;;1.40;;
19004;SDS011;9635;52.078;8.648;2022-09-03T23:20:05;2.28;;;1.35;;
19004;SDS011;9635;52.078;8.648;2022-09-03T23:25:10;3.33;;;1.63;;
19004;SDS011;9635;52.078;8.648;2022-09-03T23:30:16;2.30;;;1.52;;
19004;SDS011;9635;52.078;8.648;2022-09-03T23:35:20;2.75;;;1.50;;
19004;SDS011;9635;52.078;8.648;2022-09-03T23:40:32;1.95;;;1.60;;
19004;SDS011;9635;52.078;8.648;2022-09-03T23:45:46;2.90;;;1.52;;
19004;SDS011;9635;52.078;8.648;2022-09-03T23:51:00;4.60;;;1.80;;
19004;SDS011;9635;52.078;8.648;2022-09-03T23:56:18;2.70;;;1.80;;
